createdAt,value
2022-08-21T00:02:22.943Z,17.00
2022-08-21T00:07:25.415Z,16.80
2022-08-21T00:09:52.789Z,16.80
2022-08-21T00:14:46.738Z,16.80
2022-08-21T00:27:02.560Z,16.60
2022-08-21T00:29:29.351Z,16.50
2022-08-21T00:41:45.546Z,16.40
2022-08-21T00:44:14.660Z,16.40
2022-08-21T00:46:42.952Z,16.40
2022-08-21T00:49:13.006Z,16.30
2022-08-21T00:51:39.677Z,16.40
2022-08-21T00:54:15.039Z,16.30
2022-08-21T00:56:49.008Z,16.20
2022-08-21T00:59:18.716Z,16.20
2022-08-21T01:01:45.811Z,16.10
2022-08-21T01:06:39.808Z,16.00
2022-08-21T01:11:33.740Z,16.00
2022-08-21T01:14:00.875Z,16.10
2022-08-21T01:21:28.465Z,15.90
2022-08-21T01:23:57.345Z,15.90
2022-08-21T01:26:33.712Z,15.90
2022-08-21T01:29:04.428Z,15.90
2022-08-21T01:34:01.703Z,15.80
2022-08-21T01:38:56.688Z,15.80
2022-08-21T01:43:50.772Z,15.80
2022-08-21T01:48:45.066Z,15.70
2022-08-21T01:53:39.834Z,15.60
2022-08-21T01:56:12.095Z,15.60
2022-08-21T01:58:40.814Z,15.50
2022-08-21T02:01:08.022Z,15.50
2022-08-21T02:03:36.018Z,15.50
2022-08-21T02:06:07.889Z,15.40
2022-08-21T02:08:35.215Z,15.40
2022-08-21T02:13:29.746Z,15.20
2022-08-21T02:18:24.202Z,15.20
2022-08-21T02:20:56.101Z,15.20
2022-08-21T02:23:26.749Z,15.20
2022-08-21T02:25:56.106Z,15.20
2022-08-21T02:28:22.891Z,15.10
2022-08-21T02:30:50.243Z,15.20
2022-08-21T02:33:17.509Z,15.20
2022-08-21T02:35:46.324Z,15.20
2022-08-21T02:38:16.310Z,15.20
2022-08-21T02:40:48.302Z,15.10
2022-08-21T02:43:19.076Z,15.00
2022-08-21T02:45:47.288Z,15.00
2022-08-21T02:48:17.658Z,15.00
2022-08-21T02:50:54.005Z,15.00
2022-08-21T02:53:21.250Z,15.10
2022-08-21T02:55:49.702Z,14.90
2022-08-21T02:58:19.801Z,14.90
2022-08-21T03:03:15.498Z,14.80
2022-08-21T03:05:43.785Z,14.80
2022-08-21T03:08:12.395Z,14.70
2022-08-21T03:10:41.876Z,14.70
2022-08-21T03:13:09.255Z,14.60
2022-08-21T03:15:36.788Z,14.70
2022-08-21T03:18:06.031Z,14.60
2022-08-21T03:20:34.296Z,14.70
2022-08-21T03:23:01.908Z,14.70
2022-08-21T03:25:39.962Z,14.70
2022-08-21T03:28:13.144Z,14.80
2022-08-21T03:30:44.587Z,14.70
2022-08-21T03:40:35.486Z,14.70
2022-08-21T03:45:30.023Z,14.60
2022-08-21T03:47:59.767Z,14.60
2022-08-21T03:50:29.338Z,14.60
2022-08-21T03:52:57.178Z,14.60
2022-08-21T03:55:25.361Z,14.60
2022-08-21T03:57:52.241Z,14.60
2022-08-21T04:00:20.651Z,14.50
2022-08-21T04:02:47.703Z,14.50
2022-08-21T04:05:27.917Z,14.40
2022-08-21T04:08:04.836Z,14.40
2022-08-21T04:10:34.075Z,14.30
2022-08-21T04:15:28.320Z,14.20
2022-08-21T04:17:55.774Z,14.10
2022-08-21T04:20:23.014Z,14.20
2022-08-21T04:22:51.568Z,14.10
2022-08-21T04:25:21.113Z,14.10
2022-08-21T04:27:48.360Z,14.30
2022-08-21T04:30:16.225Z,14.40
2022-08-21T04:32:45.440Z,14.30
2022-08-21T04:35:14.112Z,14.30
2022-08-21T04:40:11.378Z,14.20
2022-08-21T04:42:50.509Z,14.10
2022-08-21T04:45:36.283Z,14.10
2022-08-21T04:48:08.626Z,14.10
2022-08-21T04:50:58.515Z,14.10
2022-08-21T04:53:58.850Z,14.10
2022-08-21T04:59:11.616Z,14.20
2022-08-21T05:01:39.113Z,14.30
2022-08-21T05:04:08.465Z,14.30
2022-08-21T05:06:37.878Z,14.30
2022-08-21T05:09:06.788Z,14.30
2022-08-21T05:11:34.243Z,14.40
2022-08-21T05:14:00.949Z,14.40
2022-08-21T05:19:03.741Z,14.50
2022-08-21T05:23:57.572Z,14.60
2022-08-21T05:28:51.356Z,14.80
2022-08-21T05:31:18.048Z,14.80
2022-08-21T05:36:11.984Z,14.90
2022-08-21T05:41:05.935Z,14.90
2022-08-21T05:46:05.294Z,15.00
2022-08-21T05:48:33.137Z,15.10
2022-08-21T05:51:12.187Z,15.00
2022-08-21T05:53:40.019Z,15.10
2022-08-21T05:56:07.786Z,15.20
2022-08-21T05:58:35.450Z,15.30
2022-08-21T06:01:03.946Z,15.40
2022-08-21T06:03:34.975Z,15.50
2022-08-21T06:06:02.573Z,15.60
2022-08-21T06:08:29.775Z,15.70
2022-08-21T06:10:58.660Z,15.80
2022-08-21T06:16:07.108Z,16.10
2022-08-21T06:18:34.891Z,16.20
2022-08-21T06:26:01.705Z,16.50
2022-08-21T06:28:28.425Z,16.60
2022-08-21T06:30:55.494Z,16.80
2022-08-21T06:38:17.203Z,17.10
2022-08-21T06:43:17.527Z,17.30
2022-08-21T06:45:45.009Z,17.50
2022-08-21T06:48:15.666Z,17.60
2022-08-21T06:53:17.175Z,17.80
2022-08-21T06:55:44.426Z,17.80
2022-08-21T06:58:11.684Z,18.00
2022-08-21T07:00:44.086Z,18.10
2022-08-21T07:03:23.464Z,18.10
2022-08-21T07:05:50.365Z,18.20
2022-08-21T07:08:17.533Z,18.30
2022-08-21T07:10:44.970Z,18.40
2022-08-21T07:13:11.978Z,18.50
2022-08-21T07:18:06.459Z,18.80
2022-08-21T07:20:33.714Z,18.90
2022-08-21T07:23:04.549Z,19.00
2022-08-21T07:32:55.561Z,19.30
2022-08-21T07:35:23.670Z,19.40
2022-08-21T07:37:50.826Z,19.50
2022-08-21T07:40:18.417Z,19.60
2022-08-21T07:42:48.088Z,19.60
2022-08-21T07:45:15.590Z,19.70
2022-08-21T07:47:43.105Z,19.80
2022-08-21T07:50:12.335Z,20.00
2022-08-21T07:55:07.680Z,20.10
2022-08-21T07:57:34.848Z,20.10
2022-08-21T08:02:30.681Z,20.30
2022-08-21T08:05:15.871Z,20.30
2022-08-21T08:07:42.659Z,20.10
2022-08-21T08:10:11.055Z,20.30
2022-08-21T08:12:40.118Z,20.50
2022-08-21T08:15:09.798Z,20.60
2022-08-21T08:20:09.970Z,20.80
2022-08-21T08:22:39.436Z,20.80
2022-08-21T08:25:09.617Z,20.90
2022-08-21T08:27:36.879Z,21.00
2022-08-21T08:30:05.301Z,21.10
2022-08-21T08:32:32.052Z,21.20
2022-08-21T08:34:58.748Z,21.30
2022-08-21T08:37:30.976Z,21.30
2022-08-21T08:40:02.074Z,21.50
2022-08-21T08:42:36.615Z,21.60
2022-08-21T08:45:06.201Z,21.60
2022-08-21T08:47:36.990Z,21.70
2022-08-21T08:50:18.791Z,21.70
2022-08-21T08:53:06.179Z,21.80
2022-08-21T08:55:40.960Z,21.70
2022-08-21T08:58:09.756Z,21.60
2022-08-21T09:00:36.492Z,21.60
2022-08-21T09:03:04.505Z,21.70
2022-08-21T09:05:47.337Z,21.70
2022-08-21T09:08:29.861Z,22.00
2022-08-21T09:14:01.570Z,22.20
2022-08-21T09:16:57.924Z,22.20
2022-08-21T09:19:41.178Z,22.20
2022-08-21T09:22:23.722Z,22.40
2022-08-21T09:24:52.125Z,22.40
2022-08-21T09:27:21.843Z,22.50
2022-08-21T09:29:52.937Z,22.50
2022-08-21T09:32:23.533Z,22.60
2022-08-21T09:35:14.359Z,22.60
2022-08-21T09:38:07.418Z,22.70
2022-08-21T09:40:41.818Z,22.80
2022-08-21T09:43:27.327Z,23.00
2022-08-21T09:46:05.641Z,23.00
2022-08-21T09:48:47.231Z,23.20
2022-08-21T09:51:17.789Z,23.20
2022-08-21T09:54:08.272Z,23.30
2022-08-21T09:56:58.260Z,23.30
2022-08-21T09:59:36.518Z,23.30
2022-08-21T10:02:30.473Z,23.30
2022-08-21T10:05:19.196Z,23.30
2022-08-21T10:07:46.225Z,23.20
2022-08-21T10:10:21.941Z,23.20
2022-08-21T10:13:10.226Z,23.20
2022-08-21T10:15:43.032Z,23.20
2022-08-21T10:18:28.841Z,23.10
2022-08-21T10:21:11.783Z,22.90
2022-08-21T10:23:50.568Z,22.90
2022-08-21T10:26:17.647Z,23.10
2022-08-21T10:29:23.724Z,23.20
2022-08-21T10:32:22.457Z,23.30
2022-08-21T10:35:14.917Z,23.40
2022-08-21T10:37:50.545Z,23.40
2022-08-21T10:40:29.160Z,23.40
2022-08-21T10:43:31.320Z,23.50
2022-08-21T10:46:12.911Z,23.70
2022-08-21T10:49:00.423Z,23.70
2022-08-21T10:51:51.896Z,23.70
2022-08-21T10:54:24.619Z,23.90
2022-08-21T10:56:59.974Z,24.10
2022-08-21T10:59:52.913Z,24.20
2022-08-21T11:02:34.302Z,24.30
2022-08-21T11:05:03.413Z,24.40
2022-08-21T11:07:36.430Z,24.40
2022-08-21T11:10:25.625Z,24.50
2022-08-21T11:13:06.529Z,24.60
2022-08-21T11:15:59.998Z,24.60
2022-08-21T11:18:44.790Z,24.80
2022-08-21T11:21:43.506Z,24.80
2022-08-21T11:24:32.867Z,24.80
2022-08-21T11:27:19.833Z,24.80
2022-08-21T11:29:54.646Z,24.90
2022-08-21T11:32:42.437Z,24.90
2022-08-21T11:35:46.719Z,24.80
2022-08-21T11:38:34.142Z,24.70
2022-08-21T11:41:12.908Z,24.70
2022-08-21T11:44:11.863Z,24.50
2022-08-21T11:46:52.846Z,24.70
2022-08-21T11:49:45.889Z,24.80
2022-08-21T11:52:21.528Z,24.80
2022-08-21T11:55:07.742Z,24.80
2022-08-21T11:57:46.723Z,24.80
2022-08-21T12:00:29.933Z,24.90
2022-08-21T12:03:06.599Z,25.00
2022-08-21T12:05:41.646Z,25.20
2022-08-21T12:08:16.156Z,25.10
2022-08-21T12:11:04.871Z,25.10
2022-08-21T12:13:40.148Z,25.20
2022-08-21T12:16:14.715Z,25.10
2022-08-21T12:18:43.070Z,25.10
2022-08-21T12:21:21.947Z,25.20
2022-08-21T12:24:06.051Z,25.20
2022-08-21T12:26:49.673Z,25.10
2022-08-21T12:29:22.774Z,24.80
2022-08-21T12:31:53.869Z,24.80
2022-08-21T12:34:23.103Z,24.80
2022-08-21T12:36:57.794Z,25.00
2022-08-21T12:39:28.284Z,25.00
2022-08-21T12:42:06.746Z,25.20
2022-08-21T12:44:46.086Z,25.40
2022-08-21T12:47:26.395Z,25.50
2022-08-21T12:50:25.035Z,25.60
2022-08-21T12:53:06.598Z,25.70
2022-08-21T12:55:48.093Z,25.70
2022-08-21T12:58:20.168Z,25.80
2022-08-21T13:01:21.840Z,25.80
2022-08-21T13:03:58.172Z,25.60
2022-08-21T13:06:52.679Z,25.70
2022-08-21T13:09:24.767Z,25.70
2022-08-21T13:11:52.466Z,25.80
2022-08-21T13:14:46.067Z,25.80
2022-08-21T13:17:23.610Z,25.80
2022-08-21T13:20:02.147Z,26.00
2022-08-21T13:22:33.389Z,26.20
2022-08-21T13:25:06.961Z,26.50
2022-08-21T13:27:35.104Z,26.40
2022-08-21T13:30:11.343Z,26.30
2022-08-21T13:32:43.189Z,26.30
2022-08-21T13:35:46.978Z,26.20
2022-08-21T13:38:14.235Z,26.00
2022-08-21T13:40:51.904Z,25.80
2022-08-21T13:43:23.130Z,25.50
2022-08-21T13:45:55.765Z,25.20
2022-08-21T13:48:26.221Z,25.30
2022-08-21T13:50:53.860Z,25.30
2022-08-21T13:53:29.538Z,25.40
2022-08-21T13:56:00.571Z,25.60
2022-08-21T13:58:34.752Z,25.70
2022-08-21T14:01:04.663Z,25.80
2022-08-21T14:03:49.896Z,25.90
2022-08-21T14:06:19.063Z,25.90
2022-08-21T14:08:56.231Z,26.00
2022-08-21T14:11:23.482Z,26.10
2022-08-21T14:13:53.473Z,26.00
2022-08-21T14:16:26.941Z,26.00
2022-08-21T14:19:03.783Z,25.90
2022-08-21T14:24:07.588Z,25.70
2022-08-21T14:26:37.891Z,25.60
2022-08-21T14:29:09.575Z,25.60
2022-08-21T14:31:37.695Z,25.70
2022-08-21T14:34:19.580Z,25.70
2022-08-21T14:36:48.030Z,25.70
2022-08-21T14:39:14.801Z,25.60
2022-08-21T14:41:43.746Z,25.40
2022-08-21T14:44:11.235Z,25.20
2022-08-21T14:46:44.000Z,25.00
2022-08-21T14:49:27.676Z,24.80
2022-08-21T14:51:58.746Z,24.70
2022-08-21T14:54:29.671Z,24.50
2022-08-21T14:57:03.653Z,24.40
2022-08-21T14:59:32.002Z,24.30
2022-08-21T15:01:58.683Z,24.30
2022-08-21T15:04:25.874Z,24.30
2022-08-21T15:06:52.638Z,24.30
2022-08-21T15:09:19.563Z,24.30
2022-08-21T15:11:46.353Z,24.30
2022-08-21T15:14:21.761Z,24.40
2022-08-21T15:16:49.769Z,24.30
2022-08-21T15:19:16.698Z,24.40
2022-08-21T15:26:37.971Z,24.50
2022-08-21T15:29:07.763Z,24.40
2022-08-21T15:31:35.940Z,24.50
2022-08-21T15:34:03.532Z,24.50
2022-08-21T15:36:30.302Z,24.50
2022-08-21T15:38:57.075Z,24.50
2022-08-21T15:43:52.968Z,24.60
2022-08-21T15:46:20.961Z,24.70
2022-08-21T15:48:47.827Z,24.80
2022-08-21T15:51:16.690Z,24.80
2022-08-21T15:53:43.818Z,24.80
2022-08-21T15:56:26.009Z,25.00
2022-08-21T15:58:58.513Z,25.00
2022-08-21T16:01:25.438Z,25.20
2022-08-21T16:03:55.546Z,25.20
2022-08-21T16:06:38.533Z,25.30
2022-08-21T16:09:09.656Z,25.40
2022-08-21T16:14:03.658Z,25.40
2022-08-21T16:16:32.200Z,25.30
2022-08-21T16:18:59.051Z,25.50
2022-08-21T16:21:25.848Z,25.50
2022-08-21T16:23:52.653Z,25.60
2022-08-21T16:26:19.465Z,25.80
2022-08-21T16:28:49.817Z,25.80
2022-08-21T16:31:17.016Z,25.90
2022-08-21T16:33:52.141Z,26.00
2022-08-21T16:36:26.395Z,25.90
2022-08-21T16:38:55.457Z,26.00
2022-08-21T16:41:24.529Z,26.00
2022-08-21T16:43:52.136Z,26.00
2022-08-21T16:46:20.680Z,26.00
2022-08-21T16:48:47.877Z,26.00
2022-08-21T16:51:15.765Z,25.90
2022-08-21T16:53:43.705Z,25.80
2022-08-21T16:56:13.373Z,25.70
2022-08-21T16:58:43.200Z,25.50
2022-08-21T17:01:13.646Z,25.50
2022-08-21T17:03:44.795Z,25.50
2022-08-21T17:06:12.247Z,25.30
2022-08-21T17:08:39.111Z,25.30
2022-08-21T17:11:09.058Z,25.30
2022-08-21T17:13:35.898Z,25.20
2022-08-21T17:16:03.587Z,25.00
2022-08-21T17:18:30.381Z,25.00
2022-08-21T17:20:57.089Z,25.00
2022-08-21T17:23:23.905Z,24.80
2022-08-21T17:25:54.040Z,24.80
2022-08-21T17:28:27.858Z,24.70
2022-08-21T17:30:58.319Z,24.60
2022-08-21T17:33:27.317Z,24.50
2022-08-21T17:35:54.315Z,24.30
2022-08-21T17:38:21.182Z,24.20
2022-08-21T17:40:48.905Z,24.20
2022-08-21T17:43:15.924Z,24.10
2022-08-21T17:45:44.458Z,24.10
2022-08-21T17:48:11.704Z,24.00
2022-08-21T17:50:39.890Z,23.90
2022-08-21T17:53:07.010Z,23.70
2022-08-21T17:55:34.778Z,23.70
2022-08-21T17:58:03.632Z,23.50
2022-08-21T18:00:31.721Z,23.50
2022-08-21T18:03:14.889Z,23.40
2022-08-21T18:05:47.814Z,23.30
2022-08-21T18:08:15.019Z,23.20
2022-08-21T18:10:45.294Z,23.10
2022-08-21T18:13:15.596Z,23.10
2022-08-21T18:15:47.408Z,23.00
2022-08-21T18:18:14.128Z,22.90
2022-08-21T18:20:40.934Z,22.80
2022-08-21T18:23:07.833Z,22.70
2022-08-21T18:25:35.190Z,22.60
2022-08-21T18:28:06.027Z,22.60
2022-08-21T18:30:37.352Z,22.50
2022-08-21T18:33:04.249Z,22.40
2022-08-21T18:35:32.672Z,22.30
2022-08-21T18:37:59.419Z,22.20
2022-08-21T18:40:26.333Z,22.20
2022-08-21T18:42:55.573Z,22.20
2022-08-21T18:45:23.182Z,22.20
2022-08-21T18:47:53.704Z,22.20
2022-08-21T18:53:24.154Z,21.90
2022-08-21T18:55:57.155Z,21.90
2022-08-21T18:58:26.126Z,21.90
2022-08-21T19:00:55.314Z,21.80
2022-08-21T19:03:24.591Z,21.70
2022-08-21T19:05:53.479Z,21.80
2022-08-21T19:08:22.691Z,21.70
2022-08-21T19:10:52.048Z,21.70
2022-08-21T19:13:21.071Z,21.70
2022-08-21T19:15:52.593Z,21.70
2022-08-21T19:18:27.865Z,21.70
2022-08-21T19:20:56.093Z,21.70
2022-08-21T19:23:29.454Z,21.70
2022-08-21T19:26:00.819Z,21.60
2022-08-21T19:28:39.918Z,21.60
2022-08-21T19:31:28.892Z,21.50
2022-08-21T19:34:02.049Z,21.50
2022-08-21T19:36:30.000Z,21.50
2022-08-21T19:38:57.322Z,21.60
2022-08-21T19:41:27.568Z,21.60
2022-08-21T19:43:57.981Z,21.50
2022-08-21T19:46:30.912Z,21.60
2022-08-21T19:48:59.122Z,21.60
2022-08-21T19:51:26.194Z,21.60
2022-08-21T19:53:57.298Z,21.50
2022-08-21T19:56:27.105Z,21.40
2022-08-21T19:58:54.782Z,21.40
2022-08-21T20:01:24.186Z,21.40
2022-08-21T20:03:53.812Z,21.40
2022-08-21T20:06:23.879Z,21.30
2022-08-21T20:08:51.446Z,21.40
2022-08-21T20:11:39.210Z,21.40
2022-08-21T20:14:09.099Z,21.40
2022-08-21T20:16:36.079Z,21.40
2022-08-21T20:19:05.595Z,21.40
2022-08-21T20:21:43.826Z,21.40
2022-08-21T20:24:14.944Z,21.30
2022-08-21T20:27:01.564Z,21.40
2022-08-21T20:29:35.048Z,21.40
2022-08-21T20:32:07.720Z,21.40
2022-08-21T20:34:34.847Z,21.30
2022-08-21T20:37:02.095Z,21.20
2022-08-21T20:39:32.270Z,21.20
2022-08-21T20:41:59.010Z,21.10
2022-08-21T20:44:29.507Z,21.20
2022-08-21T20:46:58.356Z,21.20
2022-08-21T20:49:31.283Z,21.20
2022-08-21T20:52:00.175Z,21.30
2022-08-21T20:54:44.199Z,21.30
2022-08-21T20:57:25.939Z,21.20
2022-08-21T21:00:01.428Z,21.20
2022-08-21T21:02:31.182Z,21.20
2022-08-21T21:05:19.054Z,21.20
2022-08-21T21:08:30.188Z,21.20
2022-08-21T21:11:08.070Z,21.10
2022-08-21T21:13:51.361Z,21.00
2022-08-21T21:16:24.546Z,21.00
2022-08-21T21:19:06.268Z,21.00
2022-08-21T21:21:51.592Z,21.00
2022-08-21T21:25:04.028Z,21.00
2022-08-21T21:27:38.891Z,21.00
2022-08-21T21:30:21.039Z,20.90
2022-08-21T21:32:48.199Z,20.90
2022-08-21T21:35:17.500Z,20.90
2022-08-21T21:38:09.248Z,20.90
2022-08-21T21:40:57.167Z,20.90
2022-08-21T21:44:01.431Z,20.90
2022-08-21T21:47:07.217Z,20.80
2022-08-21T21:49:59.782Z,20.70
2022-08-21T21:53:12.392Z,20.70
2022-08-21T21:55:51.673Z,20.60
2022-08-21T21:58:30.204Z,20.70
2022-08-21T22:01:31.806Z,20.60
2022-08-21T22:04:28.381Z,20.60
2022-08-21T22:07:14.372Z,20.60
2022-08-21T22:10:18.608Z,20.60
2022-08-21T22:13:26.648Z,20.60
2022-08-21T22:15:55.006Z,20.60
2022-08-21T22:18:26.655Z,20.60
2022-08-21T22:21:05.219Z,20.50
2022-08-21T22:23:38.759Z,20.50
2022-08-21T22:26:13.356Z,20.40
2022-08-21T22:28:44.095Z,20.40
2022-08-21T22:31:28.406Z,20.40
2022-08-21T22:34:18.130Z,20.40
2022-08-21T22:36:54.671Z,20.40
2022-08-21T22:39:39.183Z,20.30
2022-08-21T22:42:27.430Z,20.30
2022-08-21T22:45:00.740Z,20.30
2022-08-21T22:47:38.779Z,20.30
2022-08-21T22:50:25.079Z,20.20
2022-08-21T22:52:56.927Z,20.30
2022-08-21T22:55:43.909Z,20.20
2022-08-21T22:58:12.655Z,20.10
2022-08-21T23:00:49.545Z,19.90
2022-08-21T23:03:24.661Z,19.90
2022-08-21T23:05:52.426Z,19.90
2022-08-21T23:08:36.004Z,19.80
2022-08-21T23:14:14.578Z,19.70
2022-08-21T23:16:59.552Z,19.70
2022-08-21T23:19:44.694Z,19.60
2022-08-21T23:22:34.350Z,19.50
2022-08-21T23:25:16.399Z,19.50
2022-08-21T23:28:11.398Z,19.50
2022-08-21T23:36:09.007Z,19.20
2022-08-21T23:39:06.423Z,19.20
2022-08-21T23:42:15.100Z,19.20
2022-08-21T23:44:49.559Z,19.10
2022-08-21T23:47:53.909Z,19.10
2022-08-21T23:50:40.083Z,18.90
2022-08-21T23:53:15.634Z,18.90
2022-08-21T23:56:13.325Z,18.80
2022-08-21T23:58:52.907Z,18.80
